This is the latest recevied weather packets stored in our database for station/object WB4ZUT. If no packets are shown the sender has not sent any weather packets the latest 1 day(s).
| Time | Temp. | Humidity | Pressure | Rain* | Wind** | Luminosity | Snow |
|---|---|---|---|---|---|---|---|
| 1778037942 | 10° C | 99% | 1008.4 hPa | 1.27 mm | - | 0 W/m² | - |
| 1778037638 | 10° C | 99% | 1008 hPa | 1.27 mm | - | 0 W/m² | - |
| 1778037033 | 10° C | 99% | 1007.9 hPa | 0 mm | - | 0 W/m² | - |
| 1778036731 | 10° C | 99% | 1008 hPa | 0 mm | - | 0 W/m² | - |
| 1778036428 | 10° C | 99% | 1007.9 hPa | 1.78 mm | - | 0 W/m² | - |
| 1778036125 | 10° C | 99% | 1008 hPa | 1.78 mm | - | 0 W/m² | - |
| 1778035821 | 10° C | 99% | 1008.1 hPa | 1.27 mm | - | 0 W/m² | - |
| 1778035518 | 10° C | 99% | 1008.2 hPa | 3.05 mm | - | 0 W/m² | - |
| 1778035214 | 10.56° C | 99% | 1008.3 hPa | 1.78 mm | - | 0 W/m² | - |
| 1778034306 | 10.56° C | 99% | 1007.7 hPa | 3.05 mm | - | 0 W/m² | - |
| 1778033700 | 10.56° C | 99% | 1007.5 hPa | 0 mm | - | 0 W/m² | - |
| 1778033095 | 10.56° C | 99% | 1007.6 hPa | 0 mm | - | 0 W/m² | - |
| 1778032489 | 10.56° C | 99% | 1007.3 hPa | 0 mm | - | 0 W/m² | - |
| 1778032186 | 10.56° C | 99% | 1007.3 hPa | 0 mm | - | 0 W/m² | - |
| 1778031883 | 10.56° C | 99% | 1006.6 hPa | 3.56 mm | - | 0 W/m² | - |
| 1778031579 | 10.56° C | 99% | 1006.5 hPa | 7.87 mm | - | 0 W/m² | - |
| 1778031278 | 10.56° C | 99% | 1007 hPa | 6.1 mm | - | 0 W/m² | - |
| 1778030670 | 11.11° C | 99% | 1007.4 hPa | 0 mm | - | 0 W/m² | - |
| 1778030367 | 11.11° C | 99% | 1007.2 hPa | 0 mm | - | 0 W/m² | - |
| 1778030065 | 10.56° C | 99% | 1007.3 hPa | 0 mm | - | 0 W/m² | - |
| 1778029761 | 10.56° C | 99% | 1007.6 hPa | 0 mm | - | 0 W/m² | - |
| 1778029460 | 10.56° C | 99% | 1007.3 hPa | 0 mm | - | 0 W/m² | - |
| 1778029156 | 10.56° C | 99% | 1007.4 hPa | 0 mm | - | 0 W/m² | - |
| 1778028854 | 11.11° C | 99% | 1007.2 hPa | 0 mm | - | 0 W/m² | - |
| 1778028549 | 11.11° C | 99% | 1007.1 hPa | 0 mm | - | 0 W/m² | - |
* Rain latest hour (hover to see other rain measurements)
** Current wind speed in m/s (hover to see current wind gust speed)